Weather at Atna

Public forecast

Using degrees Celsius for public forecast. Weather courtesy of forecast.io.

Closest aviation weather report (METAR) to Atna

Closest report is Røros Airport, 53.1 nm (98.3 km) NNE.

2024/05/20 06:20 (retrieved 29 minutes ago)

ENRO 200620Z AUTO 00000KT 9999 NCD 04/M02 Q1020

Closest aviation forecast (TAF) to Atna

Closest forecast is Oslo Airport, Gardermoen, 92.3 nm (170.9 km) S.

2024/05/20 06:36 (retrieved 13 minutes ago)

TAF ENGM 200500Z 2006/2106 03010KT CAVOK BECMG 2010/2012 17008KT